sensor_id;sensor_type;location;lat;lon;timestamp;P1;durP1;ratioP1;P2;durP2;ratioP2
13218;SDS011;6674;49.152;11.918;2023-07-20T00:02:26;8.30;;;4.90;;
13218;SDS011;6674;49.152;11.918;2023-07-20T00:04:54;6.90;;;5.03;;
13218;SDS011;6674;49.152;11.918;2023-07-20T00:07:21;5.77;;;4.87;;
13218;SDS011;6674;49.152;11.918;2023-07-20T00:09:47;5.00;;;4.50;;
13218;SDS011;6674;49.152;11.918;2023-07-20T00:12:14;5.00;;;4.50;;
13218;SDS011;6674;49.152;11.918;2023-07-20T00:14:41;6.70;;;4.80;;
13218;SDS011;6674;49.152;11.918;2023-07-20T00:17:09;6.57;;;4.97;;
13218;SDS011;6674;49.152;11.918;2023-07-20T00:19:35;4.87;;;4.47;;
13218;SDS011;6674;49.152;11.918;2023-07-20T00:22:02;4.77;;;4.37;;
13218;SDS011;6674;49.152;11.918;2023-07-20T00:24:30;5.97;;;4.73;;
13218;SDS011;6674;49.152;11.918;2023-07-20T00:26:57;4.70;;;4.00;;
13218;SDS011;6674;49.152;11.918;2023-07-20T00:29:25;5.53;;;3.90;;
13218;SDS011;6674;49.152;11.918;2023-07-20T00:31:52;6.17;;;4.30;;
13218;SDS011;6674;49.152;11.918;2023-07-20T00:34:20;6.83;;;4.87;;
13218;SDS011;6674;49.152;11.918;2023-07-20T00:36:47;4.70;;;4.20;;
13218;SDS011;6674;49.152;11.918;2023-07-20T00:39:14;4.87;;;4.47;;
13218;SDS011;6674;49.152;11.918;2023-07-20T00:41:41;6.23;;;4.23;;
13218;SDS011;6674;49.152;11.918;2023-07-20T00:44:07;4.70;;;4.27;;
13218;SDS011;6674;49.152;11.918;2023-07-20T00:46:34;5.30;;;4.73;;
13218;SDS011;6674;49.152;11.918;2023-07-20T00:49:01;5.70;;;5.00;;
13218;SDS011;6674;49.152;11.918;2023-07-20T00:51:29;5.27;;;4.77;;
13218;SDS011;6674;49.152;11.918;2023-07-20T00:53:56;5.10;;;4.60;;
13218;SDS011;6674;49.152;11.918;2023-07-20T00:56:23;5.63;;;5.13;;
13218;SDS011;6674;49.152;11.918;2023-07-20T00:58:50;6.23;;;5.27;;
13218;SDS011;6674;49.152;11.918;2023-07-20T01:01:18;9.27;;;5.43;;
13218;SDS011;6674;49.152;11.918;2023-07-20T01:03:45;7.73;;;6.00;;
13218;SDS011;6674;49.152;11.918;2023-07-20T01:06:14;6.67;;;5.47;;
13218;SDS011;6674;49.152;11.918;2023-07-20T01:08:51;6.47;;;5.80;;
13218;SDS011;6674;49.152;11.918;2023-07-20T01:11:29;6.70;;;5.33;;
13218;SDS011;6674;49.152;11.918;2023-07-20T01:14:02;8.47;;;6.20;;
13218;SDS011;6674;49.152;11.918;2023-07-20T01:16:29;6.80;;;6.03;;
13218;SDS011;6674;49.152;11.918;2023-07-20T01:18:56;7.13;;;5.60;;
13218;SDS011;6674;49.152;11.918;2023-07-20T01:21:24;8.37;;;5.77;;
13218;SDS011;6674;49.152;11.918;2023-07-20T01:24:26;6.27;;;5.63;;
13218;SDS011;6674;49.152;11.918;2023-07-20T01:27:22;7.93;;;5.90;;
13218;SDS011;6674;49.152;11.918;2023-07-20T01:33:09;7.20;;;6.23;;
13218;SDS011;6674;49.152;11.918;2023-07-20T01:35:38;5.77;;;5.27;;
13218;SDS011;6674;49.152;11.918;2023-07-20T01:38:07;6.80;;;5.73;;
13218;SDS011;6674;49.152;11.918;2023-07-20T01:40:35;9.93;;;6.80;;
13218;SDS011;6674;49.152;11.918;2023-07-20T01:43:02;7.17;;;5.67;;
13218;SDS011;6674;49.152;11.918;2023-07-20T01:45:29;6.37;;;5.30;;
13218;SDS011;6674;49.152;11.918;2023-07-20T01:47:55;7.43;;;6.03;;
13218;SDS011;6674;49.152;11.918;2023-07-20T01:50:24;10.43;;;6.60;;
13218;SDS011;6674;49.152;11.918;2023-07-20T01:52:50;6.53;;;5.93;;
13218;SDS011;6674;49.152;11.918;2023-07-20T01:55:17;7.20;;;5.73;;
13218;SDS011;6674;49.152;11.918;2023-07-20T01:57:44;7.93;;;7.00;;
13218;SDS011;6674;49.152;11.918;2023-07-20T02:00:11;6.97;;;6.27;;
13218;SDS011;6674;49.152;11.918;2023-07-20T02:02:39;7.23;;;6.57;;
13218;SDS011;6674;49.152;11.918;2023-07-20T02:05:05;6.93;;;6.33;;
13218;SDS011;6674;49.152;11.918;2023-07-20T02:07:34;6.93;;;6.13;;
13218;SDS011;6674;49.152;11.918;2023-07-20T02:10:01;7.07;;;6.30;;
13218;SDS011;6674;49.152;11.918;2023-07-20T02:12:27;7.63;;;6.07;;
13218;SDS011;6674;49.152;11.918;2023-07-20T02:14:54;6.67;;;5.93;;
13218;SDS011;6674;49.152;11.918;2023-07-20T02:17:21;5.87;;;5.30;;
13218;SDS011;6674;49.152;11.918;2023-07-20T02:19:50;5.50;;;4.97;;
13218;SDS011;6674;49.152;11.918;2023-07-20T02:22:17;7.33;;;5.80;;
13218;SDS011;6674;49.152;11.918;2023-07-20T02:24:45;5.73;;;5.10;;
13218;SDS011;6674;49.152;11.918;2023-07-20T02:27:11;6.10;;;5.50;;
13218;SDS011;6674;49.152;11.918;2023-07-20T02:29:40;6.13;;;5.53;;
13218;SDS011;6674;49.152;11.918;2023-07-20T02:32:07;6.77;;;5.70;;
13218;SDS011;6674;49.152;11.918;2023-07-20T02:34:34;6.97;;;5.87;;
13218;SDS011;6674;49.152;11.918;2023-07-20T02:37:01;7.63;;;5.27;;
13218;SDS011;6674;49.152;11.918;2023-07-20T02:39:29;10.60;;;6.10;;
13218;SDS011;6674;49.152;11.918;2023-07-20T02:41:57;7.57;;;6.03;;
13218;SDS011;6674;49.152;11.918;2023-07-20T02:44:24;6.53;;;5.83;;
13218;SDS011;6674;49.152;11.918;2023-07-20T02:46:51;6.53;;;5.63;;
13218;SDS011;6674;49.152;11.918;2023-07-20T02:49:17;6.10;;;5.50;;
13218;SDS011;6674;49.152;11.918;2023-07-20T02:51:44;6.20;;;5.37;;
13218;SDS011;6674;49.152;11.918;2023-07-20T02:54:13;6.60;;;4.67;;
13218;SDS011;6674;49.152;11.918;2023-07-20T02:56:40;6.63;;;5.43;;
13218;SDS011;6674;49.152;11.918;2023-07-20T02:59:08;5.80;;;5.20;;
13218;SDS011;6674;49.152;11.918;2023-07-20T03:01:35;6.80;;;4.90;;
13218;SDS011;6674;49.152;11.918;2023-07-20T03:04:01;5.63;;;5.10;;
13218;SDS011;6674;49.152;11.918;2023-07-20T03:06:29;6.33;;;5.10;;
13218;SDS011;6674;49.152;11.918;2023-07-20T03:08:56;6.00;;;5.00;;
13218;SDS011;6674;49.152;11.918;2023-07-20T03:11:23;5.37;;;4.87;;
13218;SDS011;6674;49.152;11.918;2023-07-20T03:13:49;6.07;;;5.47;;
13218;SDS011;6674;49.152;11.918;2023-07-20T03:16:18;5.57;;;4.80;;
13218;SDS011;6674;49.152;11.918;2023-07-20T03:18:45;5.33;;;4.77;;
13218;SDS011;6674;49.152;11.918;2023-07-20T03:21:12;5.27;;;4.77;;
13218;SDS011;6674;49.152;11.918;2023-07-20T03:23:39;7.40;;;4.97;;
13218;SDS011;6674;49.152;11.918;2023-07-20T03:26:06;6.23;;;4.93;;
13218;SDS011;6674;49.152;11.918;2023-07-20T03:28:33;5.47;;;4.97;;
13218;SDS011;6674;49.152;11.918;2023-07-20T03:31:00;5.87;;;4.60;;
13218;SDS011;6674;49.152;11.918;2023-07-20T03:33:29;5.07;;;4.57;;
13218;SDS011;6674;49.152;11.918;2023-07-20T03:35:56;5.20;;;4.70;;
13218;SDS011;6674;49.152;11.918;2023-07-20T03:38:24;6.87;;;5.00;;
13218;SDS011;6674;49.152;11.918;2023-07-20T03:40:52;5.50;;;4.67;;
13218;SDS011;6674;49.152;11.918;2023-07-20T03:43:19;7.33;;;4.90;;
13218;SDS011;6674;49.152;11.918;2023-07-20T03:45:47;5.13;;;4.63;;
13218;SDS011;6674;49.152;11.918;2023-07-20T03:48:14;5.23;;;4.73;;
13218;SDS011;6674;49.152;11.918;2023-07-20T03:50:43;6.83;;;4.73;;
13218;SDS011;6674;49.152;11.918;2023-07-20T03:53:10;5.37;;;4.60;;
13218;SDS011;6674;49.152;11.918;2023-07-20T03:55:37;5.43;;;4.87;;
13218;SDS011;6674;49.152;11.918;2023-07-20T03:58:05;7.23;;;5.07;;
13218;SDS011;6674;49.152;11.918;2023-07-20T04:00:33;4.57;;;3.93;;
13218;SDS011;6674;49.152;11.918;2023-07-20T04:03:01;6.20;;;4.40;;
13218;SDS011;6674;49.152;11.918;2023-07-20T04:05:27;5.80;;;4.77;;
13218;SDS011;6674;49.152;11.918;2023-07-20T04:07:55;4.83;;;4.10;;
13218;SDS011;6674;49.152;11.918;2023-07-20T04:10:22;4.70;;;3.93;;
13218;SDS011;6674;49.152;11.918;2023-07-20T04:12:49;5.20;;;4.43;;
13218;SDS011;6674;49.152;11.918;2023-07-20T04:15:15;7.10;;;4.97;;
13218;SDS011;6674;49.152;11.918;2023-07-20T04:17:42;4.70;;;4.00;;
13218;SDS011;6674;49.152;11.918;2023-07-20T04:20:09;6.20;;;4.23;;
13218;SDS011;6674;49.152;11.918;2023-07-20T04:22:36;9.07;;;4.90;;
13218;SDS011;6674;49.152;11.918;2023-07-20T04:25:04;6.27;;;4.80;;
13218;SDS011;6674;49.152;11.918;2023-07-20T04:27:31;5.23;;;4.73;;
13218;SDS011;6674;49.152;11.918;2023-07-20T04:29:58;4.77;;;4.00;;
13218;SDS011;6674;49.152;11.918;2023-07-20T04:32:25;5.80;;;4.63;;
13218;SDS011;6674;49.152;11.918;2023-07-20T04:34:52;7.27;;;4.37;;
13218;SDS011;6674;49.152;11.918;2023-07-20T04:37:18;5.27;;;4.27;;
13218;SDS011;6674;49.152;11.918;2023-07-20T04:39:45;4.17;;;3.70;;
13218;SDS011;6674;49.152;11.918;2023-07-20T04:42:13;4.40;;;4.03;;
13218;SDS011;6674;49.152;11.918;2023-07-20T04:44:40;4.47;;;4.03;;
13218;SDS011;6674;49.152;11.918;2023-07-20T04:47:07;4.40;;;3.93;;
13218;SDS011;6674;49.152;11.918;2023-07-20T04:49:34;4.30;;;3.70;;
13218;SDS011;6674;49.152;11.918;2023-07-20T04:52:01;3.73;;;3.43;;
13218;SDS011;6674;49.152;11.918;2023-07-20T04:54:28;5.27;;;3.70;;
13218;SDS011;6674;49.152;11.918;2023-07-20T04:56:55;5.27;;;4.33;;
13218;SDS011;6674;49.152;11.918;2023-07-20T04:59:23;4.87;;;4.27;;
13218;SDS011;6674;49.152;11.918;2023-07-20T05:01:50;4.30;;;3.90;;
13218;SDS011;6674;49.152;11.918;2023-07-20T05:04:17;5.83;;;4.30;;
13218;SDS011;6674;49.152;11.918;2023-07-20T05:06:44;5.13;;;4.10;;
13218;SDS011;6674;49.152;11.918;2023-07-20T05:09:11;4.53;;;4.00;;
13218;SDS011;6674;49.152;11.918;2023-07-20T05:11:37;7.43;;;4.90;;
13218;SDS011;6674;49.152;11.918;2023-07-20T05:14:04;6.00;;;5.40;;
13218;SDS011;6674;49.152;11.918;2023-07-20T05:16:32;4.67;;;4.27;;
13218;SDS011;6674;49.152;11.918;2023-07-20T05:19:00;5.10;;;4.60;;
13218;SDS011;6674;49.152;11.918;2023-07-20T05:21:27;6.37;;;4.60;;
13218;SDS011;6674;49.152;11.918;2023-07-20T05:23:53;5.97;;;5.33;;
13218;SDS011;6674;49.152;11.918;2023-07-20T05:26:20;6.43;;;5.17;;
13218;SDS011;6674;49.152;11.918;2023-07-20T05:28:47;6.10;;;5.50;;
13218;SDS011;6674;49.152;11.918;2023-07-20T05:31:13;5.83;;;5.23;;
13218;SDS011;6674;49.152;11.918;2023-07-20T05:33:41;6.17;;;5.67;;
13218;SDS011;6674;49.152;11.918;2023-07-20T05:36:08;6.47;;;5.40;;
13218;SDS011;6674;49.152;11.918;2023-07-20T05:38:35;6.13;;;5.43;;
13218;SDS011;6674;49.152;11.918;2023-07-20T05:41:02;7.37;;;5.70;;
13218;SDS011;6674;49.152;11.918;2023-07-20T05:43:29;6.57;;;5.33;;
13218;SDS011;6674;49.152;11.918;2023-07-20T05:45:56;6.20;;;5.00;;
13218;SDS011;6674;49.152;11.918;2023-07-20T05:48:23;5.73;;;5.20;;
13218;SDS011;6674;49.152;11.918;2023-07-20T05:50:51;5.90;;;4.70;;
13218;SDS011;6674;49.152;11.918;2023-07-20T05:53:19;7.43;;;5.70;;
13218;SDS011;6674;49.152;11.918;2023-07-20T05:55:51;6.03;;;4.97;;
13218;SDS011;6674;49.152;11.918;2023-07-20T05:58:18;6.17;;;5.57;;
13218;SDS011;6674;49.152;11.918;2023-07-20T06:00:47;7.40;;;5.33;;
13218;SDS011;6674;49.152;11.918;2023-07-20T06:03:14;5.37;;;4.93;;
13218;SDS011;6674;49.152;11.918;2023-07-20T06:05:41;6.60;;;4.80;;
13218;SDS011;6674;49.152;11.918;2023-07-20T06:08:09;5.80;;;5.27;;
13218;SDS011;6674;49.152;11.918;2023-07-20T06:10:36;5.80;;;5.30;;
13218;SDS011;6674;49.152;11.918;2023-07-20T06:13:03;5.90;;;5.40;;
13218;SDS011;6674;49.152;11.918;2023-07-20T06:15:31;5.13;;;4.63;;
13218;SDS011;6674;49.152;11.918;2023-07-20T06:18:00;5.93;;;5.20;;
13218;SDS011;6674;49.152;11.918;2023-07-20T06:20:29;5.33;;;4.83;;
13218;SDS011;6674;49.152;11.918;2023-07-20T06:22:56;5.57;;;5.00;;
13218;SDS011;6674;49.152;11.918;2023-07-20T06:25:24;5.63;;;5.07;;
13218;SDS011;6674;49.152;11.918;2023-07-20T06:27:50;5.63;;;5.03;;
13218;SDS011;6674;49.152;11.918;2023-07-20T06:30:17;5.60;;;4.97;;
13218;SDS011;6674;49.152;11.918;2023-07-20T06:32:44;6.43;;;5.70;;
13218;SDS011;6674;49.152;11.918;2023-07-20T06:35:11;7.13;;;4.90;;
13218;SDS011;6674;49.152;11.918;2023-07-20T06:37:38;5.10;;;4.40;;
13218;SDS011;6674;49.152;11.918;2023-07-20T06:40:05;5.67;;;4.83;;
13218;SDS011;6674;49.152;11.918;2023-07-20T06:42:35;5.07;;;4.63;;
13218;SDS011;6674;49.152;11.918;2023-07-20T06:45:02;4.37;;;3.97;;
13218;SDS011;6674;49.152;11.918;2023-07-20T06:47:29;6.30;;;4.60;;
13218;SDS011;6674;49.152;11.918;2023-07-20T06:49:56;5.23;;;4.10;;
13218;SDS011;6674;49.152;11.918;2023-07-20T06:52:23;4.33;;;3.80;;
13218;SDS011;6674;49.152;11.918;2023-07-20T06:54:49;5.77;;;4.07;;
13218;SDS011;6674;49.152;11.918;2023-07-20T06:57:16;4.00;;;3.70;;
13218;SDS011;6674;49.152;11.918;2023-07-20T06:59:44;6.90;;;4.63;;
13218;SDS011;6674;49.152;11.918;2023-07-20T07:02:11;5.30;;;4.30;;
13218;SDS011;6674;49.152;11.918;2023-07-20T07:04:38;6.30;;;4.77;;
13218;SDS011;6674;49.152;11.918;2023-07-20T07:07:04;5.83;;;4.50;;
13218;SDS011;6674;49.152;11.918;2023-07-20T07:09:31;5.20;;;4.60;;
13218;SDS011;6674;49.152;11.918;2023-07-20T07:11:58;4.93;;;4.30;;
13218;SDS011;6674;49.152;11.918;2023-07-20T07:14:25;5.30;;;4.40;;
13218;SDS011;6674;49.152;11.918;2023-07-20T07:16:53;5.70;;;4.20;;
13218;SDS011;6674;49.152;11.918;2023-07-20T07:19:19;4.97;;;4.43;;
13218;SDS011;6674;49.152;11.918;2023-07-20T07:21:46;4.67;;;4.20;;
13218;SDS011;6674;49.152;11.918;2023-07-20T07:24:13;4.63;;;3.93;;
13218;SDS011;6674;49.152;11.918;2023-07-20T07:26:40;3.57;;;3.27;;
13218;SDS011;6674;49.152;11.918;2023-07-20T07:29:06;5.13;;;3.60;;
13218;SDS011;6674;49.152;11.918;2023-07-20T07:31:33;4.33;;;3.93;;
13218;SDS011;6674;49.152;11.918;2023-07-20T07:34:02;4.17;;;3.53;;
13218;SDS011;6674;49.152;11.918;2023-07-20T07:36:29;4.20;;;3.80;;
13218;SDS011;6674;49.152;11.918;2023-07-20T07:38:56;4.53;;;3.87;;
13218;SDS011;6674;49.152;11.918;2023-07-20T07:41:24;4.50;;;3.60;;
13218;SDS011;6674;49.152;11.918;2023-07-20T07:43:52;4.87;;;3.80;;
13218;SDS011;6674;49.152;11.918;2023-07-20T07:46:20;3.67;;;3.37;;
13218;SDS011;6674;49.152;11.918;2023-07-20T07:48:49;5.07;;;4.07;;
13218;SDS011;6674;49.152;11.918;2023-07-20T07:51:18;4.23;;;3.83;;
13218;SDS011;6674;49.152;11.918;2023-07-20T07:53:47;4.17;;;3.77;;
13218;SDS011;6674;49.152;11.918;2023-07-20T07:56:15;4.33;;;3.80;;
13218;SDS011;6674;49.152;11.918;2023-07-20T07:58:47;4.03;;;3.60;;
13218;SDS011;6674;49.152;11.918;2023-07-20T08:01:14;6.50;;;4.33;;
13218;SDS011;6674;49.152;11.918;2023-07-20T08:03:41;4.73;;;3.93;;
13218;SDS011;6674;49.152;11.918;2023-07-20T08:06:08;4.03;;;3.63;;
13218;SDS011;6674;49.152;11.918;2023-07-20T08:08:36;4.57;;;3.70;;
13218;SDS011;6674;49.152;11.918;2023-07-20T08:11:03;3.20;;;2.73;;
13218;SDS011;6674;49.152;11.918;2023-07-20T08:13:30;3.63;;;2.93;;
13218;SDS011;6674;49.152;11.918;2023-07-20T08:15:57;3.87;;;3.10;;
13218;SDS011;6674;49.152;11.918;2023-07-20T08:18:24;3.20;;;2.83;;
13218;SDS011;6674;49.152;11.918;2023-07-20T08:20:51;4.23;;;2.73;;
13218;SDS011;6674;49.152;11.918;2023-07-20T08:23:17;3.50;;;3.10;;
13218;SDS011;6674;49.152;11.918;2023-07-20T08:25:46;2.80;;;2.60;;
13218;SDS011;6674;49.152;11.918;2023-07-20T08:28:14;3.73;;;2.63;;
13218;SDS011;6674;49.152;11.918;2023-07-20T08:30:42;3.80;;;2.70;;
13218;SDS011;6674;49.152;11.918;2023-07-20T08:33:09;3.23;;;2.53;;
13218;SDS011;6674;49.152;11.918;2023-07-20T08:35:37;3.90;;;2.83;;
13218;SDS011;6674;49.152;11.918;2023-07-20T08:38:03;4.93;;;2.37;;
13218;SDS011;6674;49.152;11.918;2023-07-20T08:40:31;3.17;;;2.60;;
13218;SDS011;6674;49.152;11.918;2023-07-20T08:42:59;4.10;;;2.67;;
13218;SDS011;6674;49.152;11.918;2023-07-20T08:45:27;3.57;;;2.83;;
13218;SDS011;6674;49.152;11.918;2023-07-20T08:47:55;2.40;;;2.20;;
13218;SDS011;6674;49.152;11.918;2023-07-20T08:50:22;2.20;;;2.00;;
13218;SDS011;6674;49.152;11.918;2023-07-20T08:52:50;2.20;;;2.00;;
13218;SDS011;6674;49.152;11.918;2023-07-20T08:55:19;2.93;;;1.90;;
13218;SDS011;6674;49.152;11.918;2023-07-20T08:57:47;2.43;;;2.00;;
13218;SDS011;6674;49.152;11.918;2023-07-20T09:00:18;2.33;;;1.90;;
13218;SDS011;6674;49.152;11.918;2023-07-20T09:02:46;1.50;;;1.40;;
13218;SDS011;6674;49.152;11.918;2023-07-20T09:05:15;2.10;;;1.77;;
13218;SDS011;6674;49.152;11.918;2023-07-20T09:07:42;2.90;;;1.73;;
13218;SDS011;6674;49.152;11.918;2023-07-20T09:10:09;3.13;;;1.60;;
13218;SDS011;6674;49.152;11.918;2023-07-20T09:12:37;2.70;;;2.00;;
13218;SDS011;6674;49.152;11.918;2023-07-20T09:15:04;2.00;;;1.90;;
13218;SDS011;6674;49.152;11.918;2023-07-20T09:17:33;2.83;;;1.80;;
13218;SDS011;6674;49.152;11.918;2023-07-20T09:20:02;1.93;;;1.83;;
13218;SDS011;6674;49.152;11.918;2023-07-20T09:22:33;2.40;;;2.03;;
13218;SDS011;6674;49.152;11.918;2023-07-20T09:25:01;1.97;;;1.63;;
13218;SDS011;6674;49.152;11.918;2023-07-20T09:27:34;2.03;;;1.57;;
13218;SDS011;6674;49.152;11.918;2023-07-20T09:30:02;1.97;;;1.63;;
13218;SDS011;6674;49.152;11.918;2023-07-20T09:32:35;2.20;;;2.00;;
13218;SDS011;6674;49.152;11.918;2023-07-20T09:35:05;2.00;;;1.80;;
13218;SDS011;6674;49.152;11.918;2023-07-20T09:37:33;2.20;;;2.00;;
13218;SDS011;6674;49.152;11.918;2023-07-20T09:40:00;3.10;;;2.20;;
13218;SDS011;6674;49.152;11.918;2023-07-20T09:42:27;3.47;;;2.17;;
13218;SDS011;6674;49.152;11.918;2023-07-20T09:44:54;2.80;;;2.20;;
13218;SDS011;6674;49.152;11.918;2023-07-20T09:47:22;2.00;;;1.87;;
13218;SDS011;6674;49.152;11.918;2023-07-20T09:49:51;2.73;;;1.80;;
13218;SDS011;6674;49.152;11.918;2023-07-20T09:52:24;2.47;;;1.80;;
13218;SDS011;6674;49.152;11.918;2023-07-20T09:54:52;3.13;;;2.03;;
13218;SDS011;6674;49.152;11.918;2023-07-20T09:57:20;3.00;;;1.90;;
13218;SDS011;6674;49.152;11.918;2023-07-20T09:59:48;2.80;;;1.87;;
13218;SDS011;6674;49.152;11.918;2023-07-20T10:02:17;2.07;;;1.60;;
13218;SDS011;6674;49.152;11.918;2023-07-20T10:04:47;2.53;;;1.80;;
13218;SDS011;6674;49.152;11.918;2023-07-20T10:07:19;3.27;;;2.03;;
13218;SDS011;6674;49.152;11.918;2023-07-20T10:09:50;2.60;;;1.70;;
13218;SDS011;6674;49.152;11.918;2023-07-20T10:12:20;2.47;;;1.47;;
13218;SDS011;6674;49.152;11.918;2023-07-20T10:14:51;2.77;;;2.00;;
13218;SDS011;6674;49.152;11.918;2023-07-20T10:17:24;2.33;;;1.70;;
13218;SDS011;6674;49.152;11.918;2023-07-20T10:19:54;2.30;;;1.90;;
13218;SDS011;6674;49.152;11.918;2023-07-20T10:22:24;2.17;;;1.60;;
13218;SDS011;6674;49.152;11.918;2023-07-20T10:24:52;2.50;;;1.67;;
13218;SDS011;6674;49.152;11.918;2023-07-20T10:27:23;2.07;;;1.70;;
13218;SDS011;6674;49.152;11.918;2023-07-20T10:29:50;2.10;;;1.60;;
13218;SDS011;6674;49.152;11.918;2023-07-20T10:32:18;1.97;;;1.77;;
13218;SDS011;6674;49.152;11.918;2023-07-20T10:34:50;1.90;;;1.67;;
13218;SDS011;6674;49.152;11.918;2023-07-20T10:40:25;1.70;;;1.60;;
13218;SDS011;6674;49.152;11.918;2023-07-20T10:43:01;2.27;;;1.83;;
13218;SDS011;6674;49.152;11.918;2023-07-20T10:45:33;3.53;;;1.80;;
13218;SDS011;6674;49.152;11.918;2023-07-20T10:48:02;2.10;;;1.80;;
13218;SDS011;6674;49.152;11.918;2023-07-20T10:50:30;1.43;;;1.33;;
13218;SDS011;6674;49.152;11.918;2023-07-20T10:53:10;1.70;;;1.60;;
13218;SDS011;6674;49.152;11.918;2023-07-20T10:55:38;2.37;;;1.90;;
13218;SDS011;6674;49.152;11.918;2023-07-20T10:58:08;1.83;;;1.73;;
13218;SDS011;6674;49.152;11.918;2023-07-20T11:00:37;3.27;;;1.90;;
13218;SDS011;6674;49.152;11.918;2023-07-20T11:03:04;2.07;;;1.40;;
13218;SDS011;6674;49.152;11.918;2023-07-20T11:05:32;2.30;;;1.80;;
13218;SDS011;6674;49.152;11.918;2023-07-20T11:08:00;1.57;;;1.47;;
13218;SDS011;6674;49.152;11.918;2023-07-20T11:10:30;3.33;;;2.10;;
13218;SDS011;6674;49.152;11.918;2023-07-20T11:13:16;2.03;;;1.80;;
13218;SDS011;6674;49.152;11.918;2023-07-20T11:15:47;1.60;;;1.37;;
13218;SDS011;6674;49.152;11.918;2023-07-20T11:18:27;1.53;;;1.37;;
13218;SDS011;6674;49.152;11.918;2023-07-20T11:20:54;3.87;;;1.80;;
13218;SDS011;6674;49.152;11.918;2023-07-20T11:23:21;1.93;;;1.83;;
13218;SDS011;6674;49.152;11.918;2023-07-20T11:25:49;2.67;;;1.83;;
13218;SDS011;6674;49.152;11.918;2023-07-20T11:28:16;1.70;;;1.50;;
13218;SDS011;6674;49.152;11.918;2023-07-20T11:30:43;1.93;;;1.60;;
13218;SDS011;6674;49.152;11.918;2023-07-20T11:33:09;2.53;;;1.67;;
13218;SDS011;6674;49.152;11.918;2023-07-20T11:35:36;3.07;;;1.63;;
13218;SDS011;6674;49.152;11.918;2023-07-20T11:38:08;2.80;;;1.50;;
13218;SDS011;6674;49.152;11.918;2023-07-20T11:40:35;1.67;;;1.57;;
13218;SDS011;6674;49.152;11.918;2023-07-20T11:43:03;2.00;;;1.67;;
13218;SDS011;6674;49.152;11.918;2023-07-20T11:45:30;1.83;;;1.40;;
13218;SDS011;6674;49.152;11.918;2023-07-20T11:47:58;2.20;;;1.87;;
13218;SDS011;6674;49.152;11.918;2023-07-20T11:50:25;1.73;;;1.30;;
13218;SDS011;6674;49.152;11.918;2023-07-20T11:52:51;2.70;;;1.60;;
13218;SDS011;6674;49.152;11.918;2023-07-20T11:55:19;2.70;;;1.70;;
13218;SDS011;6674;49.152;11.918;2023-07-20T11:58:00;1.50;;;1.40;;
13218;SDS011;6674;49.152;11.918;2023-07-20T12:00:28;1.60;;;1.50;;
13218;SDS011;6674;49.152;11.918;2023-07-20T12:02:55;2.03;;;1.37;;
13218;SDS011;6674;49.152;11.918;2023-07-20T12:05:22;2.00;;;1.50;;
13218;SDS011;6674;49.152;11.918;2023-07-20T12:07:49;1.83;;;1.60;;
13218;SDS011;6674;49.152;11.918;2023-07-20T12:10:22;2.70;;;1.90;;
13218;SDS011;6674;49.152;11.918;2023-07-20T12:12:50;1.63;;;1.53;;
13218;SDS011;6674;49.152;11.918;2023-07-20T12:15:17;1.40;;;1.30;;
13218;SDS011;6674;49.152;11.918;2023-07-20T12:17:51;1.60;;;1.43;;
13218;SDS011;6674;49.152;11.918;2023-07-20T12:20:28;1.60;;;1.47;;
13218;SDS011;6674;49.152;11.918;2023-07-20T12:22:57;2.10;;;1.30;;
13218;SDS011;6674;49.152;11.918;2023-07-20T12:25:32;1.57;;;1.40;;
13218;SDS011;6674;49.152;11.918;2023-07-20T12:28:06;2.83;;;1.63;;
13218;SDS011;6674;49.152;11.918;2023-07-20T12:30:33;1.63;;;1.53;;
13218;SDS011;6674;49.152;11.918;2023-07-20T12:33:02;1.33;;;1.23;;
13218;SDS011;6674;49.152;11.918;2023-07-20T12:35:29;1.93;;;1.60;;
13218;SDS011;6674;49.152;11.918;2023-07-20T12:37:56;1.57;;;1.47;;
13218;SDS011;6674;49.152;11.918;2023-07-20T12:40:23;1.77;;;1.30;;
13218;SDS011;6674;49.152;11.918;2023-07-20T12:42:50;2.67;;;1.33;;
13218;SDS011;6674;49.152;11.918;2023-07-20T12:45:17;2.10;;;1.60;;
13218;SDS011;6674;49.152;11.918;2023-07-20T12:47:44;2.37;;;1.50;;
13218;SDS011;6674;49.152;11.918;2023-07-20T12:50:12;1.43;;;1.33;;
13218;SDS011;6674;49.152;11.918;2023-07-20T12:52:39;1.40;;;1.30;;
13218;SDS011;6674;49.152;11.918;2023-07-20T12:55:07;1.73;;;1.63;;
13218;SDS011;6674;49.152;11.918;2023-07-20T12:57:35;1.43;;;1.30;;
13218;SDS011;6674;49.152;11.918;2023-07-20T13:00:03;1.47;;;1.37;;
13218;SDS011;6674;49.152;11.918;2023-07-20T13:02:33;1.90;;;1.70;;
13218;SDS011;6674;49.152;11.918;2023-07-20T13:05:00;1.90;;;1.33;;
13218;SDS011;6674;49.152;11.918;2023-07-20T13:07:30;1.93;;;1.53;;
13218;SDS011;6674;49.152;11.918;2023-07-20T13:09:59;1.60;;;1.50;;
13218;SDS011;6674;49.152;11.918;2023-07-20T13:12:26;2.00;;;1.40;;
13218;SDS011;6674;49.152;11.918;2023-07-20T13:14:55;2.23;;;1.37;;
13218;SDS011;6674;49.152;11.918;2023-07-20T13:17:22;1.50;;;1.40;;
13218;SDS011;6674;49.152;11.918;2023-07-20T13:19:49;1.60;;;1.50;;
13218;SDS011;6674;49.152;11.918;2023-07-20T13:22:15;1.47;;;1.37;;
13218;SDS011;6674;49.152;11.918;2023-07-20T13:24:44;1.47;;;1.37;;
13218;SDS011;6674;49.152;11.918;2023-07-20T13:27:13;1.50;;;1.40;;
13218;SDS011;6674;49.152;11.918;2023-07-20T13:29:40;1.50;;;1.40;;
13218;SDS011;6674;49.152;11.918;2023-07-20T13:32:07;1.30;;;1.20;;
13218;SDS011;6674;49.152;11.918;2023-07-20T13:34:34;1.93;;;1.57;;
13218;SDS011;6674;49.152;11.918;2023-07-20T13:37:01;1.63;;;1.52;;
13218;SDS011;6674;49.152;11.918;2023-07-20T13:39:28;1.30;;;1.10;;
13218;SDS011;6674;49.152;11.918;2023-07-20T13:41:56;1.30;;;1.20;;
13218;SDS011;6674;49.152;11.918;2023-07-20T13:44:23;1.50;;;1.33;;
13218;SDS011;6674;49.152;11.918;2023-07-20T13:46:50;1.53;;;1.40;;
13218;SDS011;6674;49.152;11.918;2023-07-20T13:49:17;1.17;;;1.08;;
13218;SDS011;6674;49.152;11.918;2023-07-20T13:51:44;1.47;;;1.37;;
13218;SDS011;6674;49.152;11.918;2023-07-20T13:54:12;2.57;;;1.60;;
13218;SDS011;6674;49.152;11.918;2023-07-20T13:56:39;1.60;;;1.40;;
13218;SDS011;6674;49.152;11.918;2023-07-20T13:59:07;1.83;;;1.60;;
13218;SDS011;6674;49.152;11.918;2023-07-20T14:01:33;1.63;;;1.17;;
13218;SDS011;6674;49.152;11.918;2023-07-20T14:04:00;1.80;;;1.20;;
13218;SDS011;6674;49.152;11.918;2023-07-20T14:06:29;1.45;;;1.35;;
13218;SDS011;6674;49.152;11.918;2023-07-20T14:08:57;2.92;;;1.45;;
13218;SDS011;6674;49.152;11.918;2023-07-20T14:11:25;1.33;;;1.23;;
13218;SDS011;6674;49.152;11.918;2023-07-20T14:13:52;1.50;;;1.37;;
13218;SDS011;6674;49.152;11.918;2023-07-20T14:16:21;1.45;;;1.33;;
13218;SDS011;6674;49.152;11.918;2023-07-20T14:18:48;1.15;;;1.05;;
13218;SDS011;6674;49.152;11.918;2023-07-20T14:21:15;1.25;;;1.15;;
13218;SDS011;6674;49.152;11.918;2023-07-20T14:23:42;1.30;;;1.20;;
13218;SDS011;6674;49.152;11.918;2023-07-20T14:26:11;1.17;;;1.07;;
13218;SDS011;6674;49.152;11.918;2023-07-20T14:28:38;1.40;;;1.27;;
13218;SDS011;6674;49.152;11.918;2023-07-20T14:31:05;1.70;;;1.17;;
13218;SDS011;6674;49.152;11.918;2023-07-20T14:33:33;1.48;;;1.38;;
13218;SDS011;6674;49.152;11.918;2023-07-20T14:36:00;2.38;;;1.10;;
13218;SDS011;6674;49.152;11.918;2023-07-20T14:38:27;1.47;;;1.37;;
13218;SDS011;6674;49.152;11.918;2023-07-20T14:40:54;1.37;;;1.27;;
13218;SDS011;6674;49.152;11.918;2023-07-20T14:43:21;1.20;;;1.10;;
13218;SDS011;6674;49.152;11.918;2023-07-20T14:45:48;1.35;;;1.13;;
13218;SDS011;6674;49.152;11.918;2023-07-20T14:48:15;1.40;;;1.30;;
13218;SDS011;6674;49.152;11.918;2023-07-20T14:50:43;1.15;;;1.02;;
13218;SDS011;6674;49.152;11.918;2023-07-20T14:53:12;1.30;;;1.20;;
13218;SDS011;6674;49.152;11.918;2023-07-20T14:55:39;1.20;;;1.10;;
13218;SDS011;6674;49.152;11.918;2023-07-20T14:58:07;1.67;;;1.10;;
13218;SDS011;6674;49.152;11.918;2023-07-20T15:00:33;1.30;;;1.20;;